createdAt,value
2023-11-25T00:01:05.894Z,1.80
2023-11-25T00:03:33.104Z,1.80
2023-11-25T00:06:00.307Z,1.70
2023-11-25T00:08:28.054Z,1.70
2023-11-25T00:10:56.776Z,1.80
2023-11-25T00:13:23.867Z,1.70
2023-11-25T00:15:50.943Z,1.70
2023-11-25T00:18:19.284Z,1.70
2023-11-25T00:20:48.302Z,1.70
2023-11-25T00:23:15.464Z,1.80
2023-11-25T00:25:42.537Z,1.80
2023-11-25T00:28:11.778Z,1.80
2023-11-25T00:30:39.884Z,1.80
2023-11-25T00:33:07.225Z,1.80
2023-11-25T00:35:34.485Z,1.80
2023-11-25T00:38:02.010Z,1.80
2023-11-25T00:40:29.917Z,1.80
2023-11-25T00:42:57.218Z,1.80
2023-11-25T00:45:26.630Z,1.80
2023-11-25T00:47:54.200Z,1.80
2023-11-25T00:50:21.221Z,1.90
2023-11-25T00:52:48.389Z,1.90
2023-11-25T00:55:15.479Z,1.90
2023-11-25T00:57:42.653Z,1.90
2023-11-25T01:00:17.698Z,1.90
2023-11-25T01:02:45.631Z,1.90
2023-11-25T01:05:13.154Z,1.90
2023-11-25T01:07:40.266Z,1.90
2023-11-25T01:10:07.829Z,1.90
2023-11-25T01:12:36.439Z,1.90
2023-11-25T01:15:06.994Z,1.90
2023-11-25T01:17:34.562Z,1.90
2023-11-25T01:20:01.526Z,1.90
2023-11-25T01:22:28.592Z,1.90
2023-11-25T01:24:55.895Z,1.90
2023-11-25T01:27:24.687Z,1.90
2023-11-25T01:29:52.840Z,1.90
2023-11-25T01:32:21.539Z,1.90
2023-11-25T01:34:48.795Z,1.90
2023-11-25T01:37:19.352Z,1.90
2023-11-25T01:39:48.335Z,1.80
2023-11-25T01:42:15.522Z,1.80
2023-11-25T01:44:42.677Z,1.90
2023-11-25T01:47:09.895Z,1.90
2023-11-25T01:49:37.046Z,1.80
2023-11-25T01:52:05.400Z,1.80
2023-11-25T01:54:32.873Z,1.80
2023-11-25T01:57:00.285Z,1.70
2023-11-25T01:59:28.470Z,1.60
2023-11-25T02:01:56.629Z,1.60
2023-11-25T02:04:24.553Z,1.70
2023-11-25T02:06:51.640Z,1.70
2023-11-25T02:09:19.144Z,1.70
2023-11-25T02:12:03.056Z,1.80
2023-11-25T02:14:30.394Z,1.80
2023-11-25T02:16:57.855Z,1.70
2023-11-25T02:19:30.185Z,1.70
2023-11-25T02:21:57.694Z,1.70
2023-11-25T02:24:28.201Z,1.70
2023-11-25T02:27:02.299Z,1.70
2023-11-25T02:29:29.462Z,1.70
2023-11-25T02:31:59.754Z,1.70
2023-11-25T02:34:27.453Z,1.70
2023-11-25T02:36:54.965Z,1.70
2023-11-25T02:39:22.256Z,1.60
2023-11-25T02:41:50.286Z,1.60
2023-11-25T02:44:18.119Z,1.60
2023-11-25T02:46:45.788Z,1.60
2023-11-25T02:49:16.270Z,1.50
2023-11-25T02:51:49.982Z,1.60
2023-11-25T02:54:17.218Z,1.50
2023-11-25T02:56:44.404Z,1.50
2023-11-25T02:59:12.262Z,1.50
2023-11-25T03:01:43.994Z,1.50
2023-11-25T03:04:13.044Z,1.50
2023-11-25T03:06:40.570Z,1.50
2023-11-25T03:09:10.836Z,1.50
2023-11-25T03:11:37.939Z,1.50
2023-11-25T03:14:05.075Z,1.50
2023-11-25T03:16:34.945Z,1.50
2023-11-25T03:19:02.077Z,1.50
2023-11-25T03:21:29.752Z,1.50
2023-11-25T03:23:57.771Z,1.40
2023-11-25T03:26:25.896Z,1.40
2023-11-25T03:28:53.090Z,1.40
2023-11-25T03:31:20.239Z,1.30
2023-11-25T03:33:48.121Z,1.30
2023-11-25T03:36:15.144Z,1.30
2023-11-25T03:38:42.091Z,1.30
2023-11-25T03:41:10.087Z,1.30
2023-11-25T03:43:37.221Z,1.30
2023-11-25T03:46:05.533Z,1.40
2023-11-25T03:48:34.246Z,1.30
2023-11-25T03:51:01.320Z,1.30
2023-11-25T03:53:29.200Z,1.30
2023-11-25T03:55:56.170Z,1.30
2023-11-25T03:58:23.157Z,1.30
2023-11-25T04:00:51.069Z,1.30
2023-11-25T04:03:18.469Z,1.30
2023-11-25T04:05:45.444Z,1.20
2023-11-25T04:08:12.521Z,1.10
2023-11-25T04:10:39.554Z,1.10
2023-11-25T04:13:06.589Z,1.10
2023-11-25T04:15:33.970Z,1.10
2023-11-25T04:18:01.066Z,1.10
2023-11-25T04:20:34.420Z,1.10
2023-11-25T04:23:08.050Z,1.10
2023-11-25T04:25:36.215Z,1.10
2023-11-25T04:28:06.005Z,1.10
2023-11-25T04:30:33.087Z,1.10
2023-11-25T04:33:00.640Z,1.10
2023-11-25T04:35:27.725Z,1.10
2023-11-25T04:37:54.770Z,1.10
2023-11-25T04:40:21.821Z,1.00
2023-11-25T04:42:49.996Z,0.90
2023-11-25T04:45:18.414Z,1.00
2023-11-25T04:47:46.897Z,1.00
2023-11-25T04:50:14.993Z,1.00
2023-11-25T04:52:42.342Z,1.00
2023-11-25T04:55:13.631Z,1.00
2023-11-25T04:57:40.964Z,0.90
2023-11-25T05:00:11.565Z,0.90
2023-11-25T05:02:39.134Z,0.90
2023-11-25T05:05:06.691Z,1.00
2023-11-25T05:07:34.517Z,0.90
2023-11-25T05:10:01.994Z,0.90
2023-11-25T05:12:29.044Z,1.00
2023-11-25T05:14:55.970Z,1.00
2023-11-25T05:17:23.207Z,1.10
2023-11-25T05:19:50.383Z,1.10
2023-11-25T05:22:17.456Z,1.10
2023-11-25T05:24:44.402Z,1.10
2023-11-25T05:27:11.570Z,1.10
2023-11-25T05:29:38.552Z,1.10
2023-11-25T05:32:07.929Z,1.10
2023-11-25T05:34:35.296Z,1.10
2023-11-25T05:37:02.315Z,1.00
2023-11-25T05:39:30.049Z,1.00
2023-11-25T05:41:56.971Z,0.90
2023-11-25T05:44:26.617Z,0.90
2023-11-25T05:46:56.970Z,0.90
2023-11-25T05:49:24.052Z,0.90
2023-11-25T05:51:52.381Z,0.90
2023-11-25T05:54:19.769Z,0.90
2023-11-25T05:56:49.747Z,0.90
2023-11-25T05:59:19.742Z,0.90
2023-11-25T06:01:47.196Z,1.00
2023-11-25T06:04:15.707Z,0.90
2023-11-25T06:06:43.923Z,0.90
2023-11-25T06:09:13.052Z,0.90
2023-11-25T06:11:40.749Z,0.90
2023-11-25T06:14:07.933Z,0.90
2023-11-25T06:16:38.247Z,0.90
2023-11-25T06:19:05.810Z,0.90
2023-11-25T06:21:32.909Z,0.90
2023-11-25T06:24:01.802Z,0.80
2023-11-25T06:26:29.011Z,0.80
2023-11-25T06:28:56.666Z,0.80
2023-11-25T06:31:23.758Z,0.80
2023-11-25T06:33:51.261Z,0.80
2023-11-25T06:36:18.546Z,0.80
2023-11-25T06:38:45.463Z,0.80
2023-11-25T06:41:13.324Z,0.80
2023-11-25T06:43:41.816Z,0.80
2023-11-25T06:46:09.516Z,0.80
2023-11-25T06:48:36.822Z,0.80
2023-11-25T06:51:04.979Z,0.90
2023-11-25T06:53:32.498Z,0.80
2023-11-25T06:55:59.890Z,0.90
2023-11-25T06:58:27.290Z,0.90
2023-11-25T07:00:55.357Z,0.80
2023-11-25T07:03:22.550Z,0.70
2023-11-25T07:05:49.641Z,0.60
2023-11-25T07:08:17.463Z,0.50
2023-11-25T07:10:55.097Z,0.50
2023-11-25T07:13:22.909Z,0.50
2023-11-25T07:15:50.256Z,0.40
2023-11-25T07:18:20.064Z,0.40
2023-11-25T07:20:47.571Z,0.50
2023-11-25T07:23:15.110Z,0.40
2023-11-25T07:25:43.400Z,0.30
2023-11-25T07:28:13.489Z,0.30
2023-11-25T07:30:43.229Z,0.40
2023-11-25T07:33:10.784Z,0.30
2023-11-25T07:35:37.999Z,0.40
2023-11-25T07:38:05.022Z,0.40
2023-11-25T07:40:32.122Z,0.40
2023-11-25T07:42:59.649Z,0.50
2023-11-25T07:45:27.064Z,0.50
2023-11-25T07:47:54.292Z,0.40
2023-11-25T07:50:23.272Z,0.30
2023-11-25T07:52:53.487Z,0.30
2023-11-25T07:55:20.570Z,0.30
2023-11-25T07:57:49.154Z,0.20
2023-11-25T08:00:17.837Z,0.10
2023-11-25T08:02:45.351Z,0.20
2023-11-25T08:05:12.527Z,0.30
2023-11-25T08:07:39.685Z,0.40
2023-11-25T08:10:08.983Z,0.40
2023-11-25T08:12:36.116Z,0.40
2023-11-25T08:15:03.803Z,0.50
2023-11-25T08:17:31.360Z,0.50
2023-11-25T08:19:58.587Z,0.60
2023-11-25T08:22:25.624Z,0.60
2023-11-25T08:24:57.430Z,0.60
2023-11-25T08:27:24.642Z,0.70
2023-11-25T08:29:51.683Z,0.80
2023-11-25T08:32:18.797Z,0.80
2023-11-25T08:34:46.126Z,1.00
2023-11-25T08:37:13.191Z,1.10
2023-11-25T08:39:40.709Z,1.20
2023-11-25T08:42:10.186Z,1.30
2023-11-25T08:44:37.548Z,1.50
2023-11-25T08:47:04.681Z,1.60
2023-11-25T08:49:33.471Z,1.60
2023-11-25T08:52:00.574Z,1.70
2023-11-25T08:54:27.642Z,1.70
2023-11-25T08:56:56.232Z,1.60
2023-11-25T08:59:24.094Z,1.70
2023-11-25T09:01:53.149Z,1.70
2023-11-25T09:04:26.665Z,1.70
2023-11-25T09:06:53.952Z,1.70
2023-11-25T09:09:21.877Z,1.70
2023-11-25T09:11:49.641Z,1.60
2023-11-25T09:14:18.184Z,1.60
2023-11-25T09:16:45.586Z,1.70
2023-11-25T09:19:14.486Z,1.70
2023-11-25T09:21:42.699Z,1.70
2023-11-25T09:24:09.868Z,1.70
2023-11-25T09:26:38.122Z,1.70
2023-11-25T09:29:06.401Z,1.70
2023-11-25T09:31:34.089Z,1.70
2023-11-25T09:34:04.136Z,1.70
2023-11-25T09:36:31.459Z,1.70
2023-11-25T09:38:58.702Z,1.60
2023-11-25T09:41:26.921Z,1.60
2023-11-25T09:43:54.440Z,1.60
2023-11-25T09:46:21.883Z,1.60
2023-11-25T09:48:48.912Z,1.60
2023-11-25T09:51:20.721Z,1.60
2023-11-25T09:53:49.125Z,1.60
2023-11-25T09:56:17.260Z,1.70
2023-11-25T09:58:44.246Z,1.80
2023-11-25T10:01:14.458Z,1.80
2023-11-25T10:03:44.947Z,1.90
2023-11-25T10:06:12.608Z,2.00
2023-11-25T10:08:39.834Z,2.00
2023-11-25T10:11:09.282Z,2.00
2023-11-25T10:13:37.302Z,2.10
2023-11-25T10:16:04.703Z,2.10
2023-11-25T10:18:31.794Z,2.10
2023-11-25T10:20:59.437Z,2.00
2023-11-25T10:23:27.145Z,2.00
2023-11-25T10:25:54.623Z,2.10
2023-11-25T10:28:32.245Z,2.00
2023-11-25T10:31:00.806Z,2.00
2023-11-25T10:33:28.898Z,2.10
2023-11-25T10:35:56.512Z,2.10
2023-11-25T10:38:28.339Z,2.10
2023-11-25T10:41:02.312Z,2.10
2023-11-25T10:43:31.554Z,2.10
2023-11-25T10:46:02.073Z,2.00
2023-11-25T10:48:29.111Z,2.00
2023-11-25T10:50:56.740Z,1.90
2023-11-25T10:53:24.044Z,1.80
2023-11-25T10:55:55.295Z,1.60
2023-11-25T10:58:22.654Z,1.60
2023-11-25T11:00:50.936Z,1.60
2023-11-25T11:03:20.780Z,1.50
2023-11-25T11:06:00.225Z,1.40
2023-11-25T11:08:32.866Z,1.10
2023-11-25T11:11:02.430Z,1.10
2023-11-25T11:13:34.862Z,1.20
2023-11-25T11:16:07.079Z,1.10
2023-11-25T11:18:37.523Z,1.00
2023-11-25T11:21:07.141Z,1.10
2023-11-25T11:23:38.581Z,1.10
2023-11-25T11:26:28.845Z,1.20
2023-11-25T11:29:05.321Z,1.20
2023-11-25T11:31:47.708Z,1.20
2023-11-25T11:34:14.826Z,1.20
2023-11-25T11:36:41.916Z,1.40
2023-11-25T11:39:12.880Z,1.40
2023-11-25T11:41:40.497Z,1.40
2023-11-25T11:44:08.879Z,1.50
2023-11-25T11:46:40.065Z,1.80
2023-11-25T11:49:08.545Z,1.90
2023-11-25T11:51:36.046Z,2.00
2023-11-25T11:54:21.564Z,2.10
2023-11-25T11:57:18.815Z,2.20
2023-11-25T12:00:03.059Z,2.20
2023-11-25T12:02:32.489Z,2.10
2023-11-25T12:05:00.304Z,2.00
2023-11-25T12:07:28.404Z,1.90
2023-11-25T12:09:55.888Z,1.80
2023-11-25T12:12:23.377Z,1.80
2023-11-25T12:14:52.217Z,1.80
2023-11-25T12:17:20.810Z,1.80
2023-11-25T12:19:47.849Z,1.80
2023-11-25T12:22:15.275Z,1.70
2023-11-25T12:24:45.106Z,1.70
2023-11-25T12:27:12.844Z,1.70
2023-11-25T12:29:39.823Z,1.70
2023-11-25T12:32:06.984Z,1.60
2023-11-25T12:34:34.078Z,1.60
2023-11-25T12:37:01.468Z,1.50
2023-11-25T12:39:28.606Z,1.50
2023-11-25T12:41:56.303Z,1.50
2023-11-25T12:44:23.356Z,1.50
2023-11-25T12:47:01.335Z,1.50
2023-11-25T12:49:28.412Z,1.40
2023-11-25T12:51:55.444Z,1.40
2023-11-25T12:54:22.723Z,1.30
2023-11-25T12:56:54.232Z,1.20
2023-11-25T12:59:29.988Z,1.20
2023-11-25T13:02:08.459Z,1.10
2023-11-25T13:04:36.200Z,1.10
2023-11-25T13:07:04.093Z,1.10
2023-11-25T13:09:32.502Z,1.10
2023-11-25T13:12:00.117Z,1.10
2023-11-25T13:14:27.138Z,1.10
2023-11-25T13:16:54.912Z,1.10
2023-11-25T13:19:23.355Z,1.10
2023-11-25T13:21:50.507Z,1.00
2023-11-25T13:24:17.606Z,1.00
2023-11-25T13:26:44.642Z,1.00
2023-11-25T13:29:11.686Z,0.90
2023-11-25T13:31:39.660Z,0.90
2023-11-25T13:34:06.789Z,0.80
2023-11-25T13:36:33.750Z,0.80
2023-11-25T13:39:00.723Z,0.80
2023-11-25T13:41:27.936Z,0.80
2023-11-25T13:43:55.887Z,0.70
2023-11-25T13:46:23.073Z,0.70
2023-11-25T13:48:50.204Z,0.70
2023-11-25T13:51:17.199Z,0.70
2023-11-25T13:53:44.233Z,0.70
2023-11-25T13:56:13.330Z,0.70
2023-11-25T13:58:40.299Z,0.70
2023-11-25T14:01:07.915Z,0.70
2023-11-25T14:03:35.000Z,0.70
2023-11-25T14:06:02.074Z,0.70
2023-11-25T14:08:29.978Z,0.70
2023-11-25T14:10:57.387Z,0.70
2023-11-25T14:13:24.943Z,0.70
2023-11-25T14:15:52.078Z,0.60
2023-11-25T14:18:19.113Z,0.60
2023-11-25T14:20:46.159Z,0.60
2023-11-25T14:23:13.219Z,0.50
2023-11-25T14:25:40.387Z,0.40
2023-11-25T14:28:09.197Z,0.30
2023-11-25T14:30:36.440Z,0.30
2023-11-25T14:33:05.584Z,0.20
2023-11-25T14:35:33.400Z,0.20
2023-11-25T14:38:02.966Z,0.20
2023-11-25T14:40:30.628Z,0.20
2023-11-25T14:42:57.779Z,0.20
2023-11-25T14:45:24.724Z,0.20
2023-11-25T14:47:52.498Z,0.20
2023-11-25T14:50:20.480Z,0.20
2023-11-25T14:52:47.660Z,0.20
2023-11-25T14:55:14.701Z,0.20
2023-11-25T14:57:41.703Z,0.20
2023-11-25T15:00:10.028Z,0.30
2023-11-25T15:02:38.699Z,0.30
2023-11-25T15:05:06.276Z,0.30
2023-11-25T15:07:33.485Z,0.30
2023-11-25T15:10:00.470Z,0.30
2023-11-25T15:12:27.468Z,0.30
2023-11-25T15:14:55.775Z,0.30
2023-11-25T15:17:25.975Z,0.30
2023-11-25T15:19:53.044Z,0.20
2023-11-25T15:22:20.177Z,0.10
2023-11-25T15:24:47.943Z,0.10
2023-11-25T15:27:17.832Z,0.10
2023-11-25T15:29:58.146Z,0.10
2023-11-25T15:32:25.290Z,0.10
2023-11-25T15:34:52.245Z,0.20
2023-11-25T15:37:19.257Z,0.20
2023-11-25T15:39:46.307Z,0.20
2023-11-25T15:42:13.599Z,0.20
2023-11-25T15:44:40.731Z,0.20
2023-11-25T15:47:07.749Z,0.20
2023-11-25T15:49:34.793Z,0.20
2023-11-25T15:52:02.077Z,0.20
2023-11-25T15:54:29.225Z,0.20
2023-11-25T15:56:56.252Z,0.20
2023-11-25T15:59:25.358Z,0.20
2023-11-25T16:01:52.430Z,0.20
2023-11-25T16:04:20.962Z,0.20
2023-11-25T16:06:47.962Z,0.20
2023-11-25T16:09:16.002Z,0.20
2023-11-25T16:11:42.950Z,0.20
2023-11-25T16:14:10.339Z,0.20
2023-11-25T16:16:37.929Z,0.20
2023-11-25T16:19:05.386Z,0.10
2023-11-25T16:21:32.291Z,0.20
2023-11-25T16:24:01.279Z,0.20
2023-11-25T16:26:28.277Z,0.10
2023-11-25T16:28:55.395Z,0.20
2023-11-25T16:31:23.300Z,0.10
2023-11-25T16:33:50.312Z,0.20
2023-11-25T16:36:17.272Z,0.20
2023-11-25T16:38:46.022Z,0.10
2023-11-25T16:41:13.560Z,0.10
2023-11-25T16:43:40.534Z,0.10
2023-11-25T16:46:07.768Z,0.20
2023-11-25T16:48:43.868Z,0.20
2023-11-25T16:51:19.447Z,0.20
2023-11-25T16:53:47.874Z,0.20
2023-11-25T16:56:15.415Z,0.20
2023-11-25T16:58:42.640Z,0.20
2023-11-25T17:01:09.653Z,0.20
2023-11-25T17:03:36.894Z,0.20
2023-11-25T17:06:06.803Z,0.20
2023-11-25T17:08:34.160Z,0.20
2023-11-25T17:11:01.928Z,0.20
2023-11-25T17:13:28.907Z,0.20
2023-11-25T17:15:56.108Z,0.10
2023-11-25T17:18:23.096Z,0.10
2023-11-25T17:20:50.182Z,0.10
2023-11-25T17:23:17.164Z,0.10
2023-11-25T17:25:44.085Z,0.20
2023-11-25T17:28:11.128Z,0.20
2023-11-25T17:30:38.115Z,0.20
2023-11-25T17:33:06.870Z,0.10
2023-11-25T17:35:34.819Z,0.20
2023-11-25T17:38:03.413Z,0.10
2023-11-25T17:40:30.334Z,0.10
2023-11-25T17:42:57.405Z,0.10
2023-11-25T17:45:24.489Z,0.10
2023-11-25T17:47:51.508Z,0.10
2023-11-25T17:50:18.786Z,0.10
2023-11-25T17:52:45.941Z,0.10
2023-11-25T17:55:12.964Z,0.00
2023-11-25T17:57:40.323Z,0.00
2023-11-25T18:00:07.808Z,0.10
2023-11-25T18:02:36.017Z,0.00
2023-11-25T18:05:04.602Z,0.00
2023-11-25T18:07:34.210Z,-0.10
2023-11-25T18:10:01.271Z,-0.20
2023-11-25T18:12:28.334Z,-0.20
2023-11-25T18:14:55.328Z,-0.20
2023-11-25T18:17:22.449Z,-0.30
2023-11-25T18:19:49.694Z,-0.30
2023-11-25T18:22:16.748Z,-0.30
2023-11-25T18:24:43.919Z,-0.30
2023-11-25T18:27:10.895Z,-0.30
2023-11-25T18:29:37.906Z,-0.30
2023-11-25T18:32:05.045Z,-0.40
2023-11-25T18:34:32.171Z,-0.40
2023-11-25T18:36:59.158Z,-0.40
2023-11-25T18:39:26.246Z,-0.40
2023-11-25T18:41:53.236Z,-0.40
2023-11-25T18:44:20.388Z,-0.40
2023-11-25T18:46:48.019Z,-0.50
2023-11-25T18:49:15.816Z,-0.50
2023-11-25T18:51:43.024Z,-0.60
2023-11-25T18:54:10.241Z,-0.60
2023-11-25T18:56:40.076Z,-0.70
2023-11-25T18:59:08.079Z,-0.70
2023-11-25T19:01:36.061Z,-0.70
2023-11-25T19:04:04.130Z,-0.70
2023-11-25T19:06:31.780Z,-0.70
2023-11-25T19:08:58.722Z,-0.70
2023-11-25T19:11:25.806Z,-0.70
2023-11-25T19:13:54.579Z,-0.70
2023-11-25T19:16:21.739Z,-0.70
2023-11-25T19:18:48.751Z,-0.80
2023-11-25T19:21:15.946Z,-0.80
2023-11-25T19:23:43.036Z,-0.80
2023-11-25T19:26:10.511Z,-0.90
2023-11-25T19:28:37.704Z,-0.90
2023-11-25T19:31:05.025Z,-0.90
2023-11-25T19:33:32.194Z,-0.90
2023-11-25T19:35:59.840Z,-0.90
2023-11-25T19:38:26.896Z,-0.90
2023-11-25T19:40:53.926Z,-0.90
2023-11-25T19:43:20.960Z,-0.90
2023-11-25T19:45:47.976Z,-0.80
2023-11-25T19:48:15.209Z,-0.90
2023-11-25T19:50:42.190Z,-0.90
2023-11-25T19:53:09.759Z,-0.90
2023-11-25T19:55:37.061Z,-0.90
2023-11-25T19:58:04.274Z,-0.90
2023-11-25T20:00:31.465Z,-0.90
2023-11-25T20:02:58.665Z,-0.80
2023-11-25T20:05:25.786Z,-0.80
2023-11-25T20:07:52.905Z,-0.80
2023-11-25T20:10:21.022Z,-0.80
2023-11-25T20:12:48.240Z,-0.80
2023-11-25T20:15:15.445Z,-0.80
2023-11-25T20:17:42.895Z,-0.80
2023-11-25T20:20:09.975Z,-0.80
2023-11-25T20:22:39.555Z,-0.80
2023-11-25T20:25:07.865Z,-0.80
2023-11-25T20:27:35.802Z,-0.90
2023-11-25T20:30:02.837Z,-0.90
2023-11-25T20:32:29.875Z,-0.90
2023-11-25T20:34:56.837Z,-0.90
2023-11-25T20:37:23.936Z,-0.90
2023-11-25T20:39:50.868Z,-0.90
2023-11-25T20:42:17.799Z,-0.90
2023-11-25T20:44:44.947Z,-0.90
2023-11-25T20:47:12.498Z,-0.90
2023-11-25T20:49:39.598Z,-0.90
2023-11-25T20:52:06.928Z,-0.90
2023-11-25T20:54:35.792Z,-1.00
2023-11-25T20:57:04.979Z,-1.00
2023-11-25T20:59:31.950Z,-1.00
2023-11-25T21:01:59.011Z,-1.00
2023-11-25T21:04:26.242Z,-1.00
2023-11-25T21:06:53.533Z,-1.10
2023-11-25T21:09:21.028Z,-1.10
2023-11-25T21:11:48.044Z,-1.10
2023-11-25T21:14:15.125Z,-1.10
2023-11-25T21:16:43.443Z,-1.10
2023-11-25T21:19:10.399Z,-1.10
2023-11-25T21:21:37.352Z,-1.10
2023-11-25T21:24:05.383Z,-1.10
2023-11-25T21:26:32.706Z,-1.20
2023-11-25T21:28:59.711Z,-1.20
2023-11-25T21:31:26.783Z,-1.20
2023-11-25T21:33:53.917Z,-1.20
2023-11-25T21:36:20.890Z,-1.30
2023-11-25T21:38:48.114Z,-1.30
2023-11-25T21:41:15.754Z,-1.40
2023-11-25T21:43:43.182Z,-1.40
2023-11-25T21:46:10.481Z,-1.40
2023-11-25T21:48:38.516Z,-1.40
2023-11-25T21:51:07.340Z,-1.40
2023-11-25T21:53:34.467Z,-1.50
2023-11-25T21:56:02.377Z,-1.50
2023-11-25T21:58:29.401Z,-1.60
2023-11-25T22:00:56.328Z,-1.60
2023-11-25T22:03:23.421Z,-1.70
2023-11-25T22:05:50.449Z,-1.70
2023-11-25T22:08:17.578Z,-1.70
2023-11-25T22:10:44.718Z,-1.70
2023-11-25T22:13:12.073Z,-1.80
2023-11-25T22:15:40.046Z,-1.80
2023-11-25T22:18:08.074Z,-1.90
2023-11-25T22:20:35.004Z,-1.90
2023-11-25T22:23:02.318Z,-2.00
2023-11-25T22:25:35.652Z,-2.00
2023-11-25T22:28:03.458Z,-2.00
2023-11-25T22:30:30.579Z,-1.90
2023-11-25T22:32:57.683Z,-1.90
2023-11-25T22:35:24.821Z,-1.90
2023-11-25T22:37:52.547Z,-1.90
2023-11-25T22:40:19.723Z,-1.90
2023-11-25T22:42:46.819Z,-1.90
2023-11-25T22:45:14.972Z,-1.90
2023-11-25T22:47:42.019Z,-1.80
2023-11-25T22:50:09.882Z,-1.70
2023-11-25T22:52:37.744Z,-1.70
2023-11-25T22:55:04.895Z,-1.70
2023-11-25T22:57:31.968Z,-1.80
2023-11-25T22:59:59.319Z,-1.80
2023-11-25T23:02:29.784Z,-1.80
2023-11-25T23:04:57.685Z,-1.80
2023-11-25T23:07:24.636Z,-1.90
2023-11-25T23:09:51.707Z,-1.90
2023-11-25T23:12:19.616Z,-1.90
2023-11-25T23:14:46.633Z,-1.90
2023-11-25T23:17:13.915Z,-1.90
2023-11-25T23:19:40.890Z,-1.90
2023-11-25T23:22:07.912Z,-2.00
2023-11-25T23:24:34.879Z,-2.10
2023-11-25T23:27:01.937Z,-2.10
2023-11-25T23:29:31.461Z,-2.20
2023-11-25T23:31:58.661Z,-2.30
2023-11-25T23:34:26.477Z,-2.30
2023-11-25T23:36:53.656Z,-2.30
2023-11-25T23:39:20.636Z,-2.30
2023-11-25T23:41:48.133Z,-2.30
2023-11-25T23:44:15.204Z,-2.20
2023-11-25T23:46:42.134Z,-2.20
2023-11-25T23:49:09.141Z,-2.20
2023-11-25T23:51:36.113Z,-2.30
2023-11-25T23:54:03.718Z,-2.30
2023-11-25T23:56:35.025Z,-2.40
2023-11-25T23:59:02.113Z,-2.40
